sensor_id;sensor_type;location;lat;lon;timestamp;P1;durP1;ratioP1;P2;durP2;ratioP2
69754;SDS011;57023;52.218;5.158;2023-05-10T00:01:22;56.13;;;23.00;;
69754;SDS011;57023;52.218;5.158;2023-05-10T00:03:48;58.08;;;22.63;;
69754;SDS011;57023;52.218;5.158;2023-05-10T00:06:13;60.55;;;22.75;;
69754;SDS011;57023;52.218;5.158;2023-05-10T00:08:41;60.13;;;22.17;;
69754;SDS011;57023;52.218;5.158;2023-05-10T00:11:07;57.63;;;22.17;;
69754;SDS011;57023;52.218;5.158;2023-05-10T00:13:32;59.67;;;23.08;;
69754;SDS011;57023;52.218;5.158;2023-05-10T00:15:58;67.38;;;22.02;;
69754;SDS011;57023;52.218;5.158;2023-05-10T00:18:23;66.20;;;23.55;;
69754;SDS011;57023;52.218;5.158;2023-05-10T00:20:48;70.03;;;23.65;;
69754;SDS011;57023;52.218;5.158;2023-05-10T00:23:14;59.25;;;22.75;;
69754;SDS011;57023;52.218;5.158;2023-05-10T00:25:39;64.88;;;24.45;;
69754;SDS011;57023;52.218;5.158;2023-05-10T00:28:04;62.55;;;23.08;;
69754;SDS011;57023;52.218;5.158;2023-05-10T00:30:30;68.75;;;24.40;;
69754;SDS011;57023;52.218;5.158;2023-05-10T00:32:55;67.15;;;24.48;;
69754;SDS011;57023;52.218;5.158;2023-05-10T00:35:20;67.75;;;24.45;;
69754;SDS011;57023;52.218;5.158;2023-05-10T00:37:46;63.45;;;24.73;;
69754;SDS011;57023;52.218;5.158;2023-05-10T00:40:12;69.22;;;24.27;;
69754;SDS011;57023;52.218;5.158;2023-05-10T00:42:37;67.57;;;25.27;;
69754;SDS011;57023;52.218;5.158;2023-05-10T00:45:02;82.55;;;26.75;;
69754;SDS011;57023;52.218;5.158;2023-05-10T00:47:28;76.50;;;25.80;;
69754;SDS011;57023;52.218;5.158;2023-05-10T00:49:56;77.07;;;26.05;;
69754;SDS011;57023;52.218;5.158;2023-05-10T00:52:21;80.13;;;26.15;;
69754;SDS011;57023;52.218;5.158;2023-05-10T00:54:49;67.20;;;26.50;;
69754;SDS011;57023;52.218;5.158;2023-05-10T00:57:17;68.20;;;26.88;;
69754;SDS011;57023;52.218;5.158;2023-05-10T00:59:42;72.60;;;26.55;;
69754;SDS011;57023;52.218;5.158;2023-05-10T01:02:07;68.90;;;26.50;;
69754;SDS011;57023;52.218;5.158;2023-05-10T01:04:33;74.82;;;26.77;;
69754;SDS011;57023;52.218;5.158;2023-05-10T01:07:00;67.35;;;25.42;;
69754;SDS011;57023;52.218;5.158;2023-05-10T01:09:26;68.43;;;27.05;;
69754;SDS011;57023;52.218;5.158;2023-05-10T01:11:51;70.88;;;27.20;;
69754;SDS011;57023;52.218;5.158;2023-05-10T01:14:17;73.00;;;29.67;;
69754;SDS011;57023;52.218;5.158;2023-05-10T01:16:43;67.00;;;28.92;;
69754;SDS011;57023;52.218;5.158;2023-05-10T01:19:15;68.15;;;30.48;;
69754;SDS011;57023;52.218;5.158;2023-05-10T01:21:43;65.70;;;30.92;;
69754;SDS011;57023;52.218;5.158;2023-05-10T01:32:16;61.05;;;30.88;;
69754;SDS011;57023;52.218;5.158;2023-05-10T01:40:37;78.93;;;31.02;;
69754;SDS011;57023;52.218;5.158;2023-05-10T01:43:07;75.28;;;31.00;;
69754;SDS011;57023;52.218;5.158;2023-05-10T01:45:46;65.13;;;27.88;;
69754;SDS011;57023;52.218;5.158;2023-05-10T01:48:13;68.80;;;30.52;;
69754;SDS011;57023;52.218;5.158;2023-05-10T01:50:41;80.57;;;31.00;;
69754;SDS011;57023;52.218;5.158;2023-05-10T01:53:08;64.60;;;26.75;;
69754;SDS011;57023;52.218;5.158;2023-05-10T01:55:44;65.53;;;27.08;;
69754;SDS011;57023;52.218;5.158;2023-05-10T01:58:17;60.72;;;25.90;;
69754;SDS011;57023;52.218;5.158;2023-05-10T02:00:46;69.95;;;28.67;;
69754;SDS011;57023;52.218;5.158;2023-05-10T02:03:12;78.00;;;29.98;;
69754;SDS011;57023;52.218;5.158;2023-05-10T02:05:38;82.17;;;30.83;;
69754;SDS011;57023;52.218;5.158;2023-05-10T02:08:07;76.97;;;30.55;;
69754;SDS011;57023;52.218;5.158;2023-05-10T02:10:34;80.65;;;30.95;;
69754;SDS011;57023;52.218;5.158;2023-05-10T02:13:00;78.53;;;30.92;;
69754;SDS011;57023;52.218;5.158;2023-05-10T02:15:27;79.45;;;29.52;;
69754;SDS011;57023;52.218;5.158;2023-05-10T02:17:53;77.57;;;32.55;;
69754;SDS011;57023;52.218;5.158;2023-05-10T02:20:20;68.18;;;29.58;;
69754;SDS011;57023;52.218;5.158;2023-05-10T02:22:46;67.70;;;29.25;;
69754;SDS011;57023;52.218;5.158;2023-05-10T02:25:13;65.07;;;29.25;;
69754;SDS011;57023;52.218;5.158;2023-05-10T02:27:40;65.55;;;30.23;;
69754;SDS011;57023;52.218;5.158;2023-05-10T02:30:06;66.93;;;29.45;;
69754;SDS011;57023;52.218;5.158;2023-05-10T02:32:32;66.68;;;29.77;;
69754;SDS011;57023;52.218;5.158;2023-05-10T02:34:58;69.90;;;30.23;;
69754;SDS011;57023;52.218;5.158;2023-05-10T02:37:25;69.75;;;28.42;;
69754;SDS011;57023;52.218;5.158;2023-05-10T02:39:50;56.95;;;27.05;;
69754;SDS011;57023;52.218;5.158;2023-05-10T02:42:18;64.78;;;28.42;;
69754;SDS011;57023;52.218;5.158;2023-05-10T02:44:48;60.97;;;27.63;;
69754;SDS011;57023;52.218;5.158;2023-05-10T02:47:14;67.82;;;27.48;;
69754;SDS011;57023;52.218;5.158;2023-05-10T02:49:39;61.53;;;27.33;;
69754;SDS011;57023;52.218;5.158;2023-05-10T02:52:07;60.58;;;27.38;;
69754;SDS011;57023;52.218;5.158;2023-05-10T02:54:37;70.70;;;29.42;;
69754;SDS011;57023;52.218;5.158;2023-05-10T02:57:06;75.50;;;29.90;;
69754;SDS011;57023;52.218;5.158;2023-05-10T02:59:32;72.32;;;28.65;;
69754;SDS011;57023;52.218;5.158;2023-05-10T03:01:58;74.63;;;30.08;;
69754;SDS011;57023;52.218;5.158;2023-05-10T03:04:25;75.47;;;30.00;;
69754;SDS011;57023;52.218;5.158;2023-05-10T03:06:50;75.65;;;30.90;;
69754;SDS011;57023;52.218;5.158;2023-05-10T03:09:15;90.18;;;31.65;;
69754;SDS011;57023;52.218;5.158;2023-05-10T03:11:50;78.30;;;28.80;;
69754;SDS011;57023;52.218;5.158;2023-05-10T03:19:53;87.55;;;27.88;;
69754;SDS011;57023;52.218;5.158;2023-05-10T03:22:22;90.80;;;29.37;;
69754;SDS011;57023;52.218;5.158;2023-05-10T03:24:50;92.90;;;28.75;;
69754;SDS011;57023;52.218;5.158;2023-05-10T03:27:16;89.37;;;29.17;;
69754;SDS011;57023;52.218;5.158;2023-05-10T03:29:43;84.18;;;28.40;;
69754;SDS011;57023;52.218;5.158;2023-05-10T03:32:09;88.35;;;28.75;;
69754;SDS011;57023;52.218;5.158;2023-05-10T03:34:35;95.20;;;27.98;;
69754;SDS011;57023;52.218;5.158;2023-05-10T03:37:06;85.80;;;27.70;;
69754;SDS011;57023;52.218;5.158;2023-05-10T03:39:31;75.07;;;23.10;;
69754;SDS011;57023;52.218;5.158;2023-05-10T03:41:56;66.63;;;20.55;;
69754;SDS011;57023;52.218;5.158;2023-05-10T03:44:22;84.97;;;24.83;;
69754;SDS011;57023;52.218;5.158;2023-05-10T03:46:47;82.75;;;24.63;;
69754;SDS011;57023;52.218;5.158;2023-05-10T03:49:15;81.43;;;22.48;;
69754;SDS011;57023;52.218;5.158;2023-05-10T03:51:41;81.55;;;24.60;;
69754;SDS011;57023;52.218;5.158;2023-05-10T03:54:06;82.30;;;24.02;;
69754;SDS011;57023;52.218;5.158;2023-05-10T03:56:31;81.28;;;25.08;;
69754;SDS011;57023;52.218;5.158;2023-05-10T03:58:57;64.95;;;23.10;;
69754;SDS011;57023;52.218;5.158;2023-05-10T04:01:22;57.45;;;20.60;;
69754;SDS011;57023;52.218;5.158;2023-05-10T04:03:48;53.95;;;22.05;;
69754;SDS011;57023;52.218;5.158;2023-05-10T04:06:13;57.35;;;22.73;;
69754;SDS011;57023;52.218;5.158;2023-05-10T04:08:38;60.28;;;23.25;;
69754;SDS011;57023;52.218;5.158;2023-05-10T04:11:04;64.82;;;25.67;;
69754;SDS011;57023;52.218;5.158;2023-05-10T04:13:33;65.35;;;23.70;;
69754;SDS011;57023;52.218;5.158;2023-05-10T04:15:58;74.95;;;26.60;;
69754;SDS011;57023;52.218;5.158;2023-05-10T04:18:24;73.47;;;25.10;;
69754;SDS011;57023;52.218;5.158;2023-05-10T04:20:49;82.93;;;26.70;;
69754;SDS011;57023;52.218;5.158;2023-05-10T04:23:14;73.82;;;26.20;;
69754;SDS011;57023;52.218;5.158;2023-05-10T04:25:41;71.25;;;24.45;;
69754;SDS011;57023;52.218;5.158;2023-05-10T04:28:06;74.15;;;24.55;;
69754;SDS011;57023;52.218;5.158;2023-05-10T04:30:33;76.03;;;23.92;;
69754;SDS011;57023;52.218;5.158;2023-05-10T04:32:59;83.72;;;25.13;;
69754;SDS011;57023;52.218;5.158;2023-05-10T04:35:24;70.47;;;23.80;;
69754;SDS011;57023;52.218;5.158;2023-05-10T04:37:49;79.50;;;23.58;;
69754;SDS011;57023;52.218;5.158;2023-05-10T04:40:17;81.13;;;25.10;;
69754;SDS011;57023;52.218;5.158;2023-05-10T04:42:43;74.53;;;24.00;;
69754;SDS011;57023;52.218;5.158;2023-05-10T04:45:08;79.53;;;23.90;;
69754;SDS011;57023;52.218;5.158;2023-05-10T04:47:34;81.50;;;24.90;;
69754;SDS011;57023;52.218;5.158;2023-05-10T04:50:00;70.32;;;23.67;;
69754;SDS011;57023;52.218;5.158;2023-05-10T04:52:25;74.72;;;24.02;;
69754;SDS011;57023;52.218;5.158;2023-05-10T04:54:51;67.22;;;24.85;;
69754;SDS011;57023;52.218;5.158;2023-05-10T04:57:16;83.00;;;26.95;;
69754;SDS011;57023;52.218;5.158;2023-05-10T04:59:41;76.03;;;26.15;;
69754;SDS011;57023;52.218;5.158;2023-05-10T05:02:07;69.22;;;26.30;;
69754;SDS011;57023;52.218;5.158;2023-05-10T05:04:32;66.15;;;27.50;;
69754;SDS011;57023;52.218;5.158;2023-05-10T05:06:58;62.70;;;25.73;;
69754;SDS011;57023;52.218;5.158;2023-05-10T05:09:23;69.47;;;27.17;;
69754;SDS011;57023;52.218;5.158;2023-05-10T05:11:48;65.97;;;25.63;;
69754;SDS011;57023;52.218;5.158;2023-05-10T05:14:14;62.13;;;23.27;;
69754;SDS011;57023;52.218;5.158;2023-05-10T05:16:39;50.15;;;20.08;;
69754;SDS011;57023;52.218;5.158;2023-05-10T05:19:04;44.22;;;16.83;;
69754;SDS011;57023;52.218;5.158;2023-05-10T05:21:30;37.50;;;15.93;;
69754;SDS011;57023;52.218;5.158;2023-05-10T05:23:57;37.15;;;16.23;;
69754;SDS011;57023;52.218;5.158;2023-05-10T05:26:22;33.10;;;14.68;;
69754;SDS011;57023;52.218;5.158;2023-05-10T05:28:47;30.92;;;14.32;;
69754;SDS011;57023;52.218;5.158;2023-05-10T05:31:13;33.85;;;14.20;;
69754;SDS011;57023;52.218;5.158;2023-05-10T05:33:39;33.28;;;15.15;;
69754;SDS011;57023;52.218;5.158;2023-05-10T05:36:04;33.42;;;14.98;;
69754;SDS011;57023;52.218;5.158;2023-05-10T05:38:30;32.72;;;14.38;;
69754;SDS011;57023;52.218;5.158;2023-05-10T05:40:55;30.70;;;14.35;;
69754;SDS011;57023;52.218;5.158;2023-05-10T05:43:21;28.90;;;13.43;;
69754;SDS011;57023;52.218;5.158;2023-05-10T05:45:46;28.50;;;13.85;;
69754;SDS011;57023;52.218;5.158;2023-05-10T05:48:11;29.58;;;13.18;;
69754;SDS011;57023;52.218;5.158;2023-05-10T05:50:37;30.90;;;13.40;;
69754;SDS011;57023;52.218;5.158;2023-05-10T05:53:05;30.52;;;13.15;;
69754;SDS011;57023;52.218;5.158;2023-05-10T05:55:30;26.15;;;11.75;;
69754;SDS011;57023;52.218;5.158;2023-05-10T05:57:56;24.08;;;11.90;;
69754;SDS011;57023;52.218;5.158;2023-05-10T06:00:22;26.45;;;12.07;;
69754;SDS011;57023;52.218;5.158;2023-05-10T06:02:48;20.48;;;10.70;;
69754;SDS011;57023;52.218;5.158;2023-05-10T06:05:16;23.50;;;11.77;;
69754;SDS011;57023;52.218;5.158;2023-05-10T06:07:45;23.15;;;11.48;;
69754;SDS011;57023;52.218;5.158;2023-05-10T06:10:11;29.60;;;13.43;;
69754;SDS011;57023;52.218;5.158;2023-05-10T06:12:36;33.30;;;13.95;;
69754;SDS011;57023;52.218;5.158;2023-05-10T06:15:02;28.40;;;12.52;;
69754;SDS011;57023;52.218;5.158;2023-05-10T06:17:27;30.98;;;13.50;;
69754;SDS011;57023;52.218;5.158;2023-05-10T06:19:53;27.98;;;13.65;;
69754;SDS011;57023;52.218;5.158;2023-05-10T06:22:19;29.92;;;13.35;;
69754;SDS011;57023;52.218;5.158;2023-05-10T06:24:44;28.17;;;13.23;;
69754;SDS011;57023;52.218;5.158;2023-05-10T06:27:09;26.25;;;12.68;;
69754;SDS011;57023;52.218;5.158;2023-05-10T06:29:35;30.67;;;12.80;;
69754;SDS011;57023;52.218;5.158;2023-05-10T06:32:00;30.08;;;13.13;;
69754;SDS011;57023;52.218;5.158;2023-05-10T06:34:27;31.77;;;14.45;;
69754;SDS011;57023;52.218;5.158;2023-05-10T06:36:53;26.25;;;13.63;;
69754;SDS011;57023;52.218;5.158;2023-05-10T06:39:21;29.75;;;14.07;;
69754;SDS011;57023;52.218;5.158;2023-05-10T06:41:49;32.25;;;13.18;;
69754;SDS011;57023;52.218;5.158;2023-05-10T06:44:17;27.65;;;13.15;;
69754;SDS011;57023;52.218;5.158;2023-05-10T06:46:42;28.45;;;13.13;;
69754;SDS011;57023;52.218;5.158;2023-05-10T06:49:08;27.92;;;12.32;;
69754;SDS011;57023;52.218;5.158;2023-05-10T06:51:33;20.95;;;11.60;;
69754;SDS011;57023;52.218;5.158;2023-05-10T06:53:59;21.83;;;11.23;;
69754;SDS011;57023;52.218;5.158;2023-05-10T06:56:24;21.85;;;11.50;;
69754;SDS011;57023;52.218;5.158;2023-05-10T06:58:49;21.92;;;11.23;;
69754;SDS011;57023;52.218;5.158;2023-05-10T07:01:15;21.63;;;11.65;;
69754;SDS011;57023;52.218;5.158;2023-05-10T07:03:40;21.50;;;11.88;;
69754;SDS011;57023;52.218;5.158;2023-05-10T07:06:05;21.70;;;12.00;;
69754;SDS011;57023;52.218;5.158;2023-05-10T07:08:32;23.13;;;12.18;;
69754;SDS011;57023;52.218;5.158;2023-05-10T07:11:04;24.65;;;12.43;;
69754;SDS011;57023;52.218;5.158;2023-05-10T07:13:32;26.60;;;13.52;;
69754;SDS011;57023;52.218;5.158;2023-05-10T07:15:58;23.55;;;13.20;;
69754;SDS011;57023;52.218;5.158;2023-05-10T07:18:24;22.48;;;13.30;;
69754;SDS011;57023;52.218;5.158;2023-05-10T07:20:49;23.27;;;12.60;;
69754;SDS011;57023;52.218;5.158;2023-05-10T07:23:15;22.63;;;12.07;;
69754;SDS011;57023;52.218;5.158;2023-05-10T07:25:40;23.77;;;11.80;;
69754;SDS011;57023;52.218;5.158;2023-05-10T07:28:05;21.35;;;12.18;;
69754;SDS011;57023;52.218;5.158;2023-05-10T07:30:31;20.48;;;11.30;;
69754;SDS011;57023;52.218;5.158;2023-05-10T07:32:56;24.10;;;12.50;;
69754;SDS011;57023;52.218;5.158;2023-05-10T07:35:21;25.52;;;11.43;;
69754;SDS011;57023;52.218;5.158;2023-05-10T07:37:47;23.90;;;11.93;;
69754;SDS011;57023;52.218;5.158;2023-05-10T07:40:12;21.27;;;11.18;;
69754;SDS011;57023;52.218;5.158;2023-05-10T07:42:37;19.80;;;11.95;;
69754;SDS011;57023;52.218;5.158;2023-05-10T07:45:03;19.83;;;11.07;;
69754;SDS011;57023;52.218;5.158;2023-05-10T07:47:28;20.52;;;11.82;;
69754;SDS011;57023;52.218;5.158;2023-05-10T07:49:54;20.70;;;11.27;;
69754;SDS011;57023;52.218;5.158;2023-05-10T07:52:19;24.17;;;12.32;;
69754;SDS011;57023;52.218;5.158;2023-05-10T07:54:44;22.95;;;11.25;;
69754;SDS011;57023;52.218;5.158;2023-05-10T07:57:10;25.58;;;11.73;;
69754;SDS011;57023;52.218;5.158;2023-05-10T07:59:35;22.65;;;11.95;;
69754;SDS011;57023;52.218;5.158;2023-05-10T08:02:01;21.42;;;11.90;;
69754;SDS011;57023;52.218;5.158;2023-05-10T08:04:26;22.95;;;12.85;;
69754;SDS011;57023;52.218;5.158;2023-05-10T08:06:53;21.30;;;11.30;;
69754;SDS011;57023;52.218;5.158;2023-05-10T08:09:18;20.98;;;11.27;;
69754;SDS011;57023;52.218;5.158;2023-05-10T08:11:49;21.02;;;12.05;;
69754;SDS011;57023;52.218;5.158;2023-05-10T08:14:15;18.15;;;11.35;;
69754;SDS011;57023;52.218;5.158;2023-05-10T08:16:40;17.50;;;10.70;;
69754;SDS011;57023;52.218;5.158;2023-05-10T08:19:06;20.20;;;10.88;;
69754;SDS011;57023;52.218;5.158;2023-05-10T08:21:31;18.52;;;10.63;;
69754;SDS011;57023;52.218;5.158;2023-05-10T08:23:59;19.92;;;11.13;;
69754;SDS011;57023;52.218;5.158;2023-05-10T08:26:25;17.10;;;9.68;;
69754;SDS011;57023;52.218;5.158;2023-05-10T08:28:50;16.50;;;10.48;;
69754;SDS011;57023;52.218;5.158;2023-05-10T08:31:16;16.52;;;10.63;;
69754;SDS011;57023;52.218;5.158;2023-05-10T08:33:41;19.40;;;10.95;;
69754;SDS011;57023;52.218;5.158;2023-05-10T08:36:06;17.23;;;10.18;;
69754;SDS011;57023;52.218;5.158;2023-05-10T08:38:35;14.45;;;9.35;;
69754;SDS011;57023;52.218;5.158;2023-05-10T08:41:01;15.38;;;9.57;;
69754;SDS011;57023;52.218;5.158;2023-05-10T08:43:27;16.23;;;8.07;;
69754;SDS011;57023;52.218;5.158;2023-05-10T08:45:54;14.60;;;8.13;;
69754;SDS011;57023;52.218;5.158;2023-05-10T08:48:20;12.82;;;8.00;;
69754;SDS011;57023;52.218;5.158;2023-05-10T08:50:48;15.60;;;7.97;;
69754;SDS011;57023;52.218;5.158;2023-05-10T08:53:14;13.57;;;8.68;;
69754;SDS011;57023;52.218;5.158;2023-05-10T08:55:41;13.77;;;8.80;;
69754;SDS011;57023;52.218;5.158;2023-05-10T08:58:08;15.38;;;8.52;;
69754;SDS011;57023;52.218;5.158;2023-05-10T09:00:34;12.33;;;8.40;;
69754;SDS011;57023;52.218;5.158;2023-05-10T09:03:00;15.55;;;8.98;;
69754;SDS011;57023;52.218;5.158;2023-05-10T09:05:28;16.27;;;9.52;;
69754;SDS011;57023;52.218;5.158;2023-05-10T09:07:54;14.90;;;8.80;;
69754;SDS011;57023;52.218;5.158;2023-05-10T09:10:19;15.32;;;9.50;;
69754;SDS011;57023;52.218;5.158;2023-05-10T09:12:45;14.13;;;8.75;;
69754;SDS011;57023;52.218;5.158;2023-05-10T09:15:14;14.02;;;8.52;;
69754;SDS011;57023;52.218;5.158;2023-05-10T09:20:05;14.73;;;8.35;;
69754;SDS011;57023;52.218;5.158;2023-05-10T09:22:32;14.73;;;8.70;;
69754;SDS011;57023;52.218;5.158;2023-05-10T09:25:04;13.10;;;8.40;;
69754;SDS011;57023;52.218;5.158;2023-05-10T09:27:33;12.77;;;8.48;;
69754;SDS011;57023;52.218;5.158;2023-05-10T09:29:59;14.20;;;8.55;;
69754;SDS011;57023;52.218;5.158;2023-05-10T09:32:41;11.50;;;7.13;;
69754;SDS011;57023;52.218;5.158;2023-05-10T09:35:10;11.98;;;6.68;;
69754;SDS011;57023;52.218;5.158;2023-05-10T09:37:38;11.57;;;6.93;;
69754;SDS011;57023;52.218;5.158;2023-05-10T09:40:06;10.20;;;7.03;;
69754;SDS011;57023;52.218;5.158;2023-05-10T09:42:54;9.95;;;6.53;;
69754;SDS011;57023;52.218;5.158;2023-05-10T09:45:27;9.98;;;6.25;;
69754;SDS011;57023;52.218;5.158;2023-05-10T09:48:02;10.05;;;6.10;;
69754;SDS011;57023;52.218;5.158;2023-05-10T09:50:28;11.10;;;6.70;;
69754;SDS011;57023;52.218;5.158;2023-05-10T09:53:03;10.47;;;6.13;;
69754;SDS011;57023;52.218;5.158;2023-05-10T09:58:04;13.60;;;6.85;;
69754;SDS011;57023;52.218;5.158;2023-05-10T10:00:34;9.52;;;6.28;;
69754;SDS011;57023;52.218;5.158;2023-05-10T10:03:21;10.55;;;6.43;;
69754;SDS011;57023;52.218;5.158;2023-05-10T10:05:48;9.07;;;5.78;;
69754;SDS011;57023;52.218;5.158;2023-05-10T10:08:14;8.50;;;5.60;;
69754;SDS011;57023;52.218;5.158;2023-05-10T10:10:40;8.77;;;5.47;;
69754;SDS011;57023;52.218;5.158;2023-05-10T10:13:06;8.75;;;5.75;;
69754;SDS011;57023;52.218;5.158;2023-05-10T10:15:32;9.40;;;5.65;;
69754;SDS011;57023;52.218;5.158;2023-05-10T10:17:58;10.10;;;5.50;;
69754;SDS011;57023;52.218;5.158;2023-05-10T10:20:24;9.30;;;5.47;;
69754;SDS011;57023;52.218;5.158;2023-05-10T10:22:50;8.73;;;5.65;;
69754;SDS011;57023;52.218;5.158;2023-05-10T10:25:16;9.88;;;5.15;;
69754;SDS011;57023;52.218;5.158;2023-05-10T10:30:11;7.07;;;4.53;;
69754;SDS011;57023;52.218;5.158;2023-05-10T10:32:55;6.97;;;4.32;;
69754;SDS011;57023;52.218;5.158;2023-05-10T10:35:29;7.43;;;4.53;;
69754;SDS011;57023;52.218;5.158;2023-05-10T10:37:54;8.65;;;4.80;;
69754;SDS011;57023;52.218;5.158;2023-05-10T10:42:53;9.45;;;5.07;;
69754;SDS011;57023;52.218;5.158;2023-05-10T10:45:19;7.13;;;4.50;;
69754;SDS011;57023;52.218;5.158;2023-05-10T10:47:45;6.82;;;4.20;;
69754;SDS011;57023;52.218;5.158;2023-05-10T10:50:10;7.28;;;4.20;;
69754;SDS011;57023;52.218;5.158;2023-05-10T10:52:40;7.05;;;4.35;;
69754;SDS011;57023;52.218;5.158;2023-05-10T10:55:13;8.68;;;4.60;;
69754;SDS011;57023;52.218;5.158;2023-05-10T10:57:47;8.20;;;4.45;;
69754;SDS011;57023;52.218;5.158;2023-05-10T11:05:35;8.00;;;4.50;;
69754;SDS011;57023;52.218;5.158;2023-05-10T11:08:09;6.30;;;4.03;;
69754;SDS011;57023;52.218;5.158;2023-05-10T11:10:36;7.05;;;4.38;;
69754;SDS011;57023;52.218;5.158;2023-05-10T11:13:02;8.05;;;4.85;;
69754;SDS011;57023;52.218;5.158;2023-05-10T11:15:35;7.88;;;4.72;;
69754;SDS011;57023;52.218;5.158;2023-05-10T11:20:54;8.68;;;4.72;;
69754;SDS011;57023;52.218;5.158;2023-05-10T11:26:06;7.30;;;4.38;;
69754;SDS011;57023;52.218;5.158;2023-05-10T11:28:34;6.82;;;4.47;;
69754;SDS011;57023;52.218;5.158;2023-05-10T11:30:59;6.93;;;3.80;;
69754;SDS011;57023;52.218;5.158;2023-05-10T11:33:25;6.38;;;3.72;;
69754;SDS011;57023;52.218;5.158;2023-05-10T11:35:50;6.72;;;3.72;;
69754;SDS011;57023;52.218;5.158;2023-05-10T11:38:15;5.80;;;4.03;;
69754;SDS011;57023;52.218;5.158;2023-05-10T11:40:41;7.35;;;3.92;;
69754;SDS011;57023;52.218;5.158;2023-05-10T11:43:08;6.47;;;4.03;;
69754;SDS011;57023;52.218;5.158;2023-05-10T11:45:34;6.47;;;3.78;;
69754;SDS011;57023;52.218;5.158;2023-05-10T11:47:59;7.20;;;4.03;;
69754;SDS011;57023;52.218;5.158;2023-05-10T11:50:25;9.40;;;4.10;;
69754;SDS011;57023;52.218;5.158;2023-05-10T11:52:54;6.85;;;4.10;;
69754;SDS011;57023;52.218;5.158;2023-05-10T11:55:20;8.15;;;4.72;;
69754;SDS011;57023;52.218;5.158;2023-05-10T11:57:45;7.13;;;4.55;;
69754;SDS011;57023;52.218;5.158;2023-05-10T12:00:14;7.30;;;4.70;;
69754;SDS011;57023;52.218;5.158;2023-05-10T12:02:39;7.35;;;4.07;;
69754;SDS011;57023;52.218;5.158;2023-05-10T12:05:05;8.88;;;5.40;;
69754;SDS011;57023;52.218;5.158;2023-05-10T12:07:31;8.32;;;4.55;;
69754;SDS011;57023;52.218;5.158;2023-05-10T12:10:03;6.80;;;4.50;;
69754;SDS011;57023;52.218;5.158;2023-05-10T12:12:45;9.05;;;4.18;;
69754;SDS011;57023;52.218;5.158;2023-05-10T12:15:19;8.23;;;4.18;;
69754;SDS011;57023;52.218;5.158;2023-05-10T12:17:46;7.07;;;4.10;;
69754;SDS011;57023;52.218;5.158;2023-05-10T12:20:21;7.47;;;4.95;;
69754;SDS011;57023;52.218;5.158;2023-05-10T12:22:53;8.10;;;4.70;;
69754;SDS011;57023;52.218;5.158;2023-05-10T12:25:20;8.27;;;4.47;;
69754;SDS011;57023;52.218;5.158;2023-05-10T12:30:18;7.22;;;4.47;;
69754;SDS011;57023;52.218;5.158;2023-05-10T12:32:45;7.43;;;4.63;;
69754;SDS011;57023;52.218;5.158;2023-05-10T12:35:11;8.25;;;4.50;;
69754;SDS011;57023;52.218;5.158;2023-05-10T12:37:36;7.53;;;4.82;;
69754;SDS011;57023;52.218;5.158;2023-05-10T12:40:05;8.30;;;4.82;;
69754;SDS011;57023;52.218;5.158;2023-05-10T12:42:31;9.13;;;5.18;;
69754;SDS011;57023;52.218;5.158;2023-05-10T12:45:00;9.18;;;5.70;;
69754;SDS011;57023;52.218;5.158;2023-05-10T12:47:26;10.32;;;5.47;;
69754;SDS011;57023;52.218;5.158;2023-05-10T12:49:51;9.13;;;5.82;;
69754;SDS011;57023;52.218;5.158;2023-05-10T12:52:17;11.27;;;6.38;;
69754;SDS011;57023;52.218;5.158;2023-05-10T12:54:42;11.27;;;6.93;;
69754;SDS011;57023;52.218;5.158;2023-05-10T12:57:08;12.63;;;7.32;;
69754;SDS011;57023;52.218;5.158;2023-05-10T12:59:33;16.58;;;8.55;;
69754;SDS011;57023;52.218;5.158;2023-05-10T13:01:58;13.63;;;8.68;;
69754;SDS011;57023;52.218;5.158;2023-05-10T13:04:23;14.65;;;9.02;;
69754;SDS011;57023;52.218;5.158;2023-05-10T13:06:49;15.23;;;9.38;;
69754;SDS011;57023;52.218;5.158;2023-05-10T13:09:14;18.70;;;10.02;;
69754;SDS011;57023;52.218;5.158;2023-05-10T13:11:40;19.02;;;9.27;;
69754;SDS011;57023;52.218;5.158;2023-05-10T13:14:05;18.58;;;10.85;;
69754;SDS011;57023;52.218;5.158;2023-05-10T13:16:31;17.15;;;9.52;;
69754;SDS011;57023;52.218;5.158;2023-05-10T13:18:56;18.65;;;9.90;;
69754;SDS011;57023;52.218;5.158;2023-05-10T13:21:21;19.80;;;9.88;;
69754;SDS011;57023;52.218;5.158;2023-05-10T13:26:14;17.63;;;10.20;;
69754;SDS011;57023;52.218;5.158;2023-05-10T13:28:46;18.10;;;10.05;;
69754;SDS011;57023;52.218;5.158;2023-05-10T13:31:11;18.88;;;9.90;;
69754;SDS011;57023;52.218;5.158;2023-05-10T13:33:36;18.90;;;9.38;;
69754;SDS011;57023;52.218;5.158;2023-05-10T13:36:02;17.33;;;9.50;;
69754;SDS011;57023;52.218;5.158;2023-05-10T13:38:27;16.38;;;8.90;;
69754;SDS011;57023;52.218;5.158;2023-05-10T13:40:52;16.23;;;8.40;;
69754;SDS011;57023;52.218;5.158;2023-05-10T13:43:18;15.05;;;7.60;;
69754;SDS011;57023;52.218;5.158;2023-05-10T13:45:44;13.02;;;7.13;;
69754;SDS011;57023;52.218;5.158;2023-05-10T13:48:09;13.00;;;7.07;;
69754;SDS011;57023;52.218;5.158;2023-05-10T13:50:35;11.90;;;6.75;;
69754;SDS011;57023;52.218;5.158;2023-05-10T13:53:00;14.98;;;7.53;;
69754;SDS011;57023;52.218;5.158;2023-05-10T13:55:25;12.10;;;7.40;;
69754;SDS011;57023;52.218;5.158;2023-05-10T13:57:51;13.05;;;7.57;;
69754;SDS011;57023;52.218;5.158;2023-05-10T14:00:16;12.20;;;7.10;;
69754;SDS011;57023;52.218;5.158;2023-05-10T14:02:42;10.95;;;6.60;;
69754;SDS011;57023;52.218;5.158;2023-05-10T14:05:07;12.43;;;6.90;;
69754;SDS011;57023;52.218;5.158;2023-05-10T14:07:32;11.23;;;6.75;;
69754;SDS011;57023;52.218;5.158;2023-05-10T14:09:58;12.73;;;6.75;;
69754;SDS011;57023;52.218;5.158;2023-05-10T14:12:23;13.35;;;7.63;;
69754;SDS011;57023;52.218;5.158;2023-05-10T14:14:49;12.27;;;7.10;;
69754;SDS011;57023;52.218;5.158;2023-05-10T14:17:14;10.90;;;6.60;;
69754;SDS011;57023;52.218;5.158;2023-05-10T14:19:39;13.40;;;7.47;;
69754;SDS011;57023;52.218;5.158;2023-05-10T14:22:04;13.05;;;7.18;;
69754;SDS011;57023;52.218;5.158;2023-05-10T14:24:30;12.90;;;7.68;;
69754;SDS011;57023;52.218;5.158;2023-05-10T14:26:55;13.00;;;6.97;;
69754;SDS011;57023;52.218;5.158;2023-05-10T14:29:21;9.35;;;6.75;;
69754;SDS011;57023;52.218;5.158;2023-05-10T14:31:47;12.07;;;7.00;;
69754;SDS011;57023;52.218;5.158;2023-05-10T14:34:12;11.85;;;6.97;;
69754;SDS011;57023;52.218;5.158;2023-05-10T14:36:40;13.20;;;6.82;;
69754;SDS011;57023;52.218;5.158;2023-05-10T14:39:05;12.23;;;6.97;;
69754;SDS011;57023;52.218;5.158;2023-05-10T14:41:31;10.65;;;6.60;;
69754;SDS011;57023;52.218;5.158;2023-05-10T14:43:57;10.70;;;6.47;;
69754;SDS011;57023;52.218;5.158;2023-05-10T14:46:22;11.40;;;6.63;;
69754;SDS011;57023;52.218;5.158;2023-05-10T14:48:47;12.18;;;7.13;;
69754;SDS011;57023;52.218;5.158;2023-05-10T14:51:13;11.43;;;6.93;;
69754;SDS011;57023;52.218;5.158;2023-05-10T14:53:38;10.93;;;6.45;;
69754;SDS011;57023;52.218;5.158;2023-05-10T14:56:03;12.80;;;7.43;;
69754;SDS011;57023;52.218;5.158;2023-05-10T14:58:29;11.73;;;7.15;;
69754;SDS011;57023;52.218;5.158;2023-05-10T15:00:55;13.50;;;7.88;;
69754;SDS011;57023;52.218;5.158;2023-05-10T15:03:21;10.57;;;7.05;;
69754;SDS011;57023;52.218;5.158;2023-05-10T15:05:47;13.75;;;7.55;;
69754;SDS011;57023;52.218;5.158;2023-05-10T15:08:12;13.02;;;7.40;;
69754;SDS011;57023;52.218;5.158;2023-05-10T15:10:38;11.75;;;7.15;;